Time;durP1;ratioP1;P1;durP2;ratioP2;P2;SDS_P1;SDS_P2;PMS_P1;PMS_P2;Temp;Humidity;BMP_temperature;BMP_pressure;BME280_temperature;BME280_humidity;BME280_pressure;Samples;Min_cycle;Max_cycle;Signal;HPM_P1;HPM_P2
2024/04/13 00:01:24;;;;;;;12.30;8.80;;;;;;;12.77;70.30;99253.61;104060;1280;61782;-89
2024/04/13 00:03:51;;;;;;;11.20;8.40;;;;;;;12.75;70.40;99253.96;104134;1273;61214;-89
2024/04/13 00:06:17;;;;;;;12.00;8.10;;;;;;;12.73;70.39;99253.41;103987;1279;61279;-87
2024/04/13 00:08:43;;;;;;;13.20;8.00;;;;;;;12.70;70.58;99246.55;104116;1273;61145;-88
2024/04/13 00:11:09;;;;;;;11.50;8.60;;;;;;;12.69;70.65;99245.19;104274;1273;61692;-88
2024/04/13 00:13:36;;;;;;;13.60;8.70;;;;;;;12.68;70.64;99244.89;103984;1273;61125;-88
2024/04/13 00:16:02;;;;;;;12.10;9.20;;;;;;;12.67;70.70;99238.47;104148;1279;61188;-90
2024/04/13 00:18:32;;;;;;;10.00;8.40;;;;;;;12.66;70.89;99240.35;103994;1273;61246;-89
2024/04/13 00:20:58;;;;;;;13.50;9.50;;;;;;;12.66;70.84;99239.42;104362;1273;75061;-89
2024/04/13 00:23:24;;;;;;;10.30;8.10;;;;;;;12.65;70.96;99236.61;104174;1279;72690;-89
2024/04/13 00:25:51;;;;;;;14.80;8.10;;;;;;;12.64;70.91;99233.80;104066;1276;61237;-90
2024/04/13 00:28:18;;;;;;;9.60;7.80;;;;;;;12.63;71.12;99231.00;104843;1279;61268;-90
2024/04/13 00:30:45;;;;;;;11.00;7.30;;;;;;;12.63;71.15;99234.23;104180;1273;61210;-92
2024/04/13 00:33:11;;;;;;;8.60;7.10;;;;;;;12.63;71.16;99230.61;104492;1279;75268;-92
2024/04/13 00:35:37;;;;;;;9.30;7.50;;;;;;;12.64;71.17;99229.13;104504;1273;61209;-87
2024/04/13 00:38:04;;;;;;;9.50;6.70;;;;;;;12.65;71.14;99230.85;104925;1273;61206;-89
2024/04/13 00:40:30;;;;;;;8.10;7.20;;;;;;;12.67;71.05;99229.70;107568;1273;58846;-88
2024/04/13 00:43:11;;;;;;;7.50;6.70;;;;;;;12.68;71.03;99231.96;107444;1273;59841;-88
2024/04/13 00:45:43;;;;;;;9.80;6.60;;;;;;;12.69;70.99;99229.77;107913;1273;74246;-88
2024/04/13 00:48:11;;;;;;;8.50;6.80;;;;;;;12.68;70.97;99227.44;106929;1279;71776;-89
2024/04/13 00:50:40;;;;;;;10.50;7.40;;;;;;;12.68;71.01;99222.79;106999;1273;61196;-89
2024/04/13 00:53:09;;;;;;;9.40;8.10;;;;;;;12.67;71.09;99219.27;106376;1281;61261;-88
2024/04/13 00:55:36;;;;;;;10.70;7.90;;;;;;;12.64;71.10;99216.73;106261;1273;73855;-90
2024/04/13 00:58:02;;;;;;;8.60;6.40;;;;;;;12.60;71.36;99211.91;105521;1273;73263;-89
2024/04/13 01:00:29;;;;;;;8.90;7.00;;;;;;;12.56;71.36;99209.33;106162;1273;60524;-89
2024/04/13 01:02:55;;;;;;;7.90;6.90;;;;;;;12.53;71.53;99211.88;105549;1273;61329;-89
2024/04/13 01:05:21;;;;;;;7.00;5.90;;;;;;;12.51;71.72;99212.55;103936;1281;61247;-90
2024/04/13 01:07:47;;;;;;;8.20;6.80;;;;;;;12.50;71.92;99213.13;104073;1273;61300;-90
2024/04/13 01:10:16;;;;;;;7.00;6.10;;;;;;;12.50;72.11;99214.58;104317;1273;61236;-87
2024/04/13 01:12:43;;;;;;;8.80;6.80;;;;;;;12.49;72.07;99218.95;104283;1277;72569;-87
2024/04/13 01:15:09;;;;;;;8.30;6.50;;;;;;;12.48;72.12;99212.89;105616;1276;61269;-87
2024/04/13 01:17:37;;;;;;;8.90;7.20;;;;;;;12.47;72.19;99211.50;105734;1273;61215;-88
2024/04/13 01:20:04;;;;;;;7.80;6.60;;;;;;;12.47;72.23;99214.20;104952;1278;73585;-87
2024/04/13 01:22:32;;;;;;;9.20;6.70;;;;;;;12.47;72.20;99211.33;104550;1279;76003;-88
2024/04/13 01:24:58;;;;;;;13.50;6.40;;;;;;;12.46;72.04;99210.86;104077;1280;70745;-88
2024/04/13 01:27:24;;;;;;;10.60;6.80;;;;;;;12.45;71.99;99211.48;104077;1273;61207;-87
2024/04/13 01:29:50;;;;;;;8.60;5.90;;;;;;;12.44;71.87;99210.50;103969;1273;61243;-89
2024/04/13 01:32:16;;;;;;;8.30;6.10;;;;;;;12.41;72.00;99212.83;104052;1273;62276;-89
2024/04/13 01:34:43;;;;;;;8.00;7.00;;;;;;;12.40;72.13;99213.09;104433;1279;61182;-88
2024/04/13 01:37:08;;;;;;;8.40;7.10;;;;;;;12.36;72.17;99212.94;104001;1275;61233;-87
2024/04/13 01:39:35;;;;;;;8.10;6.90;;;;;;;12.34;72.28;99213.44;104147;1273;61256;-90
2024/04/13 01:42:01;;;;;;;7.90;7.00;;;;;;;12.31;72.38;99211.67;104037;1273;61157;-91
2024/04/13 01:44:28;;;;;;;7.80;7.00;;;;;;;12.26;72.43;99211.76;104159;1278;61122;-91
2024/04/13 01:46:58;;;;;;;7.70;6.90;;;;;;;12.22;72.53;99211.87;104259;1279;61216;-90
2024/04/13 01:49:27;;;;;;;7.80;6.60;;;;;;;12.17;72.56;99211.45;104563;1277;72515;-92
2024/04/13 01:51:53;;;;;;;8.60;6.80;;;;;;;12.14;72.77;99211.86;104140;1273;62306;-90
2024/04/13 01:54:20;;;;;;;7.60;6.50;;;;;;;12.11;73.13;99206.30;104263;1274;61259;-93
2024/04/13 01:56:46;;;;;;;7.60;6.30;;;;;;;12.09;73.22;99201.71;104134;1273;61100;-89
2024/04/13 01:59:13;;;;;;;11.00;7.10;;;;;;;12.08;73.30;99199.64;103953;1282;61246;-90
2024/04/13 02:01:39;;;;;;;9.80;7.20;;;;;;;12.07;73.26;99195.21;103885;1281;61384;-89
2024/04/13 02:04:06;;;;;;;9.10;7.40;;;;;;;12.06;73.35;99198.67;104047;1280;61303;-90
2024/04/13 02:06:32;;;;;;;12.30;7.40;;;;;;;12.05;73.44;99201.23;104107;1279;61230;-90
2024/04/13 02:08:58;;;;;;;9.80;6.40;;;;;;;12.05;73.54;99199.64;104124;1273;62903;-89
2024/04/13 02:11:24;;;;;;;8.20;6.50;;;;;;;12.05;73.69;99197.34;104017;1273;61234;-91
2024/04/13 02:13:50;;;;;;;11.10;7.40;;;;;;;12.06;73.87;99199.59;104053;1274;61241;-90
2024/04/13 02:16:17;;;;;;;10.90;7.60;;;;;;;12.06;73.77;99191.70;104109;1282;61227;-89
2024/04/13 02:18:44;;;;;;;8.80;6.80;;;;;;;12.07;73.89;99191.43;106414;1273;60341;-90
2024/04/13 02:21:10;;;;;;;8.30;6.10;;;;;;;12.09;74.01;99194.54;107785;1273;61003;-89
2024/04/13 02:23:38;;;;;;;10.20;6.50;;;;;;;12.09;73.92;99194.52;105133;1281;61094;-90
2024/04/13 02:26:07;;;;;;;9.70;7.30;;;;;;;12.10;74.01;99197.70;104578;1274;71571;-89
2024/04/13 02:28:35;;;;;;;8.70;7.80;;;;;;;12.10;74.08;99195.77;104598;1273;61249;-90
2024/04/13 02:31:01;;;;;;;13.50;6.80;;;;;;;12.10;74.03;99194.13;104063;1281;132098;-89
2024/04/13 02:33:27;;;;;;;7.40;5.50;;;;;;;12.10;74.16;99194.83;104191;1273;61276;-89
2024/04/13 02:35:59;;;;;;;10.10;6.10;;;;;;;12.10;73.95;99191.80;104400;1273;74589;-89
2024/04/13 02:38:26;;;;;;;10.40;6.80;;;;;;;12.10;73.74;99191.62;106878;1273;72657;-89
2024/04/13 02:40:56;;;;;;;9.30;6.90;;;;;;;12.09;73.78;99189.88;104539;1273;62763;-90
2024/04/13 02:43:23;;;;;;;7.30;6.50;;;;;;;12.07;73.39;99194.48;104210;1273;61274;-89
2024/04/13 02:45:49;;;;;;;8.00;6.40;;;;;;;12.05;73.09;99195.35;103826;1281;74143;-90
2024/04/13 02:48:16;;;;;;;7.40;6.50;;;;;;;11.99;73.02;99189.08;104040;1273;61304;-90
2024/04/13 02:50:44;;;;;;;10.60;6.70;;;;;;;11.95;73.23;99193.63;103843;1277;71834;-90
2024/04/13 02:53:10;;;;;;;8.20;7.20;;;;;;;11.90;73.51;99191.21;103958;1282;61166;-90
2024/04/13 02:55:36;;;;;;;9.10;7.00;;;;;;;11.86;73.43;99195.01;103693;1276;61646;-90
2024/04/13 02:58:07;;;;;;;8.60;7.10;;;;;;;11.83;73.82;99193.23;103690;1281;73274;-91
2024/04/13 03:00:33;;;;;;;8.40;7.30;;;;;;;11.80;73.93;99191.64;103735;1276;74530;-90
2024/04/13 03:03:00;;;;;;;7.60;6.60;;;;;;;11.77;73.93;99189.18;104005;1279;61234;-91
2024/04/13 03:05:27;;;;;;;8.60;5.70;;;;;;;11.73;73.92;99190.65;104020;1280;61103;-89
2024/04/13 03:07:53;;;;;;;9.60;6.70;;;;;;;11.67;74.13;99194.05;103894;1276;61215;-89
2024/04/13 03:10:19;;;;;;;8.40;6.20;;;;;;;11.63;74.28;99192.14;104111;1276;61295;-88
2024/04/13 03:12:46;;;;;;;10.30;7.20;;;;;;;11.59;74.22;99188.41;103826;1281;61456;-91
2024/04/13 03:15:12;;;;;;;9.50;6.90;;;;;;;11.57;74.34;99190.55;103902;1274;61314;-90
2024/04/13 03:17:39;;;;;;;8.00;6.30;;;;;;;11.52;74.44;99185.79;104018;1280;61238;-91
2024/04/13 03:20:06;;;;;;;10.90;5.80;;;;;;;11.48;74.52;99179.82;104007;1277;61237;-91
2024/04/13 03:22:35;;;;;;;7.20;6.40;;;;;;;11.43;74.57;99181.17;103699;1277;74719;-90
2024/04/13 03:25:03;;;;;;;7.90;6.10;;;;;;;11.38;74.77;99177.91;103975;1276;72987;-90
2024/04/13 03:27:29;;;;;;;8.30;6.00;;;;;;;11.33;74.89;99174.59;103964;1276;72925;-90
2024/04/13 03:29:56;;;;;;;8.80;6.20;;;;;;;11.31;75.02;99172.76;103789;1282;61848;-91
2024/04/13 03:32:22;;;;;;;6.60;5.90;;;;;;;11.29;75.30;99173.77;104023;1277;61339;-90
2024/04/13 03:34:48;;;;;;;6.80;5.70;;;;;;;11.28;75.43;99174.90;103908;1282;61479;-90
2024/04/13 03:37:14;;;;;;;6.60;5.50;;;;;;;11.28;75.61;99168.80;103949;1276;61122;-88
2024/04/13 03:39:41;;;;;;;6.10;4.90;;;;;;;11.27;75.60;99169.73;103974;1282;61259;-89
2024/04/13 03:42:07;;;;;;;8.10;5.20;;;;;;;11.28;75.70;99171.52;103923;1276;61250;-91
2024/04/13 03:44:33;;;;;;;7.70;5.40;;;;;;;11.26;75.85;99171.59;104054;1279;61263;-91
2024/04/13 03:46:59;;;;;;;9.00;5.20;;;;;;;11.26;75.57;99168.92;103883;1276;61245;-88
2024/04/13 03:49:26;;;;;;;5.20;4.70;;;;;;;11.25;75.73;99159.66;103876;1277;61342;-90
2024/04/13 03:51:52;;;;;;;6.70;4.90;;;;;;;11.25;75.68;99157.16;104045;1275;61231;-90
2024/04/13 03:54:18;;;;;;;7.90;4.80;;;;;;;11.24;75.70;99153.80;103997;1277;61223;-91
2024/04/13 03:56:48;;;;;;;5.80;4.60;;;;;;;11.24;75.66;99151.86;103762;1276;61204;-89
2024/04/13 03:59:18;;;;;;;6.90;4.50;;;;;;;11.23;75.80;99148.51;104084;1279;72938;-90
2024/04/13 04:01:44;;;;;;;9.30;4.90;;;;;;;11.23;75.81;99147.61;103976;1279;74327;-90
2024/04/13 04:04:10;;;;;;;5.20;4.50;;;;;;;11.21;75.63;99150.54;103809;1282;61281;-90
2024/04/13 04:06:36;;;;;;;6.00;4.60;;;;;;;11.20;75.53;99161.69;104061;1278;61294;-90
2024/04/13 04:09:03;;;;;;;7.80;4.10;;;;;;;11.19;75.48;99158.56;104065;1274;61233;-91
2024/04/13 04:11:29;;;;;;;4.20;3.80;;;;;;;11.18;75.67;99161.88;104216;1279;61176;-90
2024/04/13 04:13:56;;;;;;;8.80;5.00;;;;;;;11.17;75.96;99159.41;104164;1273;61242;-90
2024/04/13 04:16:22;;;;;;;7.70;4.30;;;;;;;11.17;76.03;99159.61;103969;1276;61222;-90
2024/04/13 04:18:51;;;;;;;5.60;4.70;;;;;;;11.17;76.15;99161.38;104567;1274;61225;-87
2024/04/13 04:21:17;;;;;;;6.50;4.60;;;;;;;11.18;76.29;99169.04;106745;1273;60537;-87
2024/04/13 04:23:45;;;;;;;5.20;4.40;;;;;;;11.19;76.51;99168.27;106538;1282;60428;-87
2024/04/13 04:26:11;;;;;;;12.30;5.60;;;;;;;11.19;76.59;99166.45;104893;1273;74983;-91
2024/04/13 04:28:37;;;;;;;5.70;4.40;;;;;;;11.21;76.80;99170.30;104620;1276;61266;-90
2024/04/13 04:31:12;;;;;;;8.30;4.60;;;;;;;11.24;76.73;99168.53;105848;1273;61244;-87
2024/04/13 04:33:39;;;;;;;6.40;4.10;;;;;;;11.26;76.57;99173.58;106504;1274;61376;-90
2024/04/13 04:36:06;;;;;;;5.50;4.00;;;;;;;11.28;76.74;99171.65;105635;1278;61329;-89
2024/04/13 04:38:38;;;;;;;7.80;4.80;;;;;;;11.32;76.82;99169.30;104180;1279;74600;-90
2024/04/13 04:41:04;;;;;;;10.50;5.30;;;;;;;11.34;76.72;99169.68;103905;1279;72626;-89
2024/04/13 04:43:30;;;;;;;12.00;5.90;;;;;;;11.35;76.76;99170.86;104506;1280;61177;-88
2024/04/13 04:45:58;;;;;;;15.00;5.70;;;;;;;11.38;76.70;99175.73;104798;1273;61017;-92
2024/04/13 04:48:27;;;;;;;8.00;5.00;;;;;;;11.39;76.90;99175.48;104186;1282;73417;-89
2024/04/13 04:51:02;;;;;;;8.80;5.70;;;;;;;11.40;76.72;99173.82;106898;1273;61318;-89
2024/04/13 04:53:29;;;;;;;8.90;5.60;;;;;;;11.42;76.70;99175.50;104254;1273;72706;-91
2024/04/13 04:55:56;;;;;;;9.50;5.60;;;;;;;11.44;76.74;99174.29;104059;1273;61221;-91
2024/04/13 04:58:27;;;;;;;8.80;4.90;;;;;;;11.44;76.37;99172.66;104430;1282;61158;-91
2024/04/13 05:00:54;;;;;;;13.90;5.00;;;;;;;11.45;76.61;99176.20;104387;1282;73496;-90
2024/04/13 05:03:24;;;;;;;9.20;4.60;;;;;;;11.47;76.73;99177.68;104959;1270;61054;-90
2024/04/13 05:05:53;;;;;;;8.70;5.50;;;;;;;11.50;76.94;99175.17;104365;1278;73478;-90
2024/04/13 05:08:20;;;;;;;10.20;5.70;;;;;;;11.54;76.95;99174.77;104289;1282;61841;-91
2024/04/13 05:10:47;;;;;;;15.90;6.10;;;;;;;11.57;77.30;99172.05;104074;1280;61256;-90
2024/04/13 05:13:16;;;;;;;11.30;5.60;;;;;;;11.62;77.40;99175.35;104580;1276;73046;-91
2024/04/13 05:15:42;;;;;;;8.60;6.00;;;;;;;11.66;77.59;99174.23;104446;1281;61158;-89
2024/04/13 05:18:09;;;;;;;11.30;5.30;;;;;;;11.70;77.68;99172.73;104182;1277;61314;-91
2024/04/13 05:20:36;;;;;;;11.10;6.00;;;;;;;11.75;77.92;99176.71;104071;1277;61187;-89
2024/04/13 05:23:07;;;;;;;7.50;5.60;;;;;;;11.81;78.01;99176.35;104634;1276;61211;-90
2024/04/13 05:25:34;;;;;;;15.00;6.50;;;;;;;11.86;78.03;99176.19;103805;1285;72258;-90
2024/04/13 05:28:02;;;;;;;6.50;5.60;;;;;;;11.92;77.97;99172.06;105818;1276;61182;-89
2024/04/13 05:30:32;;;;;;;11.70;5.70;;;;;;;12.00;78.19;99173.23;107123;1273;71761;-89
2024/04/13 05:32:58;;;;;;;9.90;5.60;;;;;;;12.07;78.35;99169.56;105854;1276;61246;-90
2024/04/13 05:35:25;;;;;;;13.60;5.40;;;;;;;12.15;78.24;99170.52;104167;1277;61150;-89
2024/04/13 05:37:51;;;;;;;8.80;5.30;;;;;;;12.21;78.30;99167.40;104784;1274;61245;-89
2024/04/13 05:40:18;;;;;;;9.10;4.30;;;;;;;12.28;78.35;99167.51;104717;1280;61275;-89
2024/04/13 05:42:44;;;;;;;6.40;4.30;;;;;;;12.37;78.67;99164.06;105251;1273;61630;-88
2024/04/13 05:45:10;;;;;;;7.60;4.40;;;;;;;12.45;78.81;99167.27;104281;1282;61205;-91
2024/04/13 05:47:37;;;;;;;16.30;5.40;;;;;;;12.56;78.64;99161.77;104815;1280;61237;-89
2024/04/13 05:50:03;;;;;;;9.10;5.10;;;;;;;12.68;78.32;99164.58;107590;1276;58952;-89
2024/04/13 05:52:32;;;;;;;10.80;4.50;;;;;;;12.80;78.23;99167.16;107178;1276;74452;-92
2024/04/13 05:55:01;;;;;;;15.00;5.20;;;;;;;12.93;77.89;99163.07;104683;1276;71513;-90
2024/04/13 05:57:29;;;;;;;8.30;4.10;;;;;;;13.07;77.66;99166.67;105590;1275;61435;-92
2024/04/13 05:59:55;;;;;;;7.90;4.00;;;;;;;13.20;77.46;99161.09;105377;1275;61131;-90
2024/04/13 06:02:26;;;;;;;6.40;5.10;;;;;;;13.33;77.21;99163.09;104078;1282;73777;-90
2024/04/13 06:04:53;;;;;;;7.50;4.00;;;;;;;13.47;77.06;99159.65;104357;1279;75489;-91
2024/04/13 06:07:20;;;;;;;8.50;3.90;;;;;;;13.59;76.84;99160.77;104270;1282;75176;-90
2024/04/13 06:09:47;;;;;;;4.70;3.70;;;;;;;13.73;76.77;99161.10;104071;1280;61190;-90
2024/04/13 06:12:14;;;;;;;7.40;3.20;;;;;;;13.85;76.00;99166.88;104177;1275;61099;-91
2024/04/13 06:14:41;;;;;;;7.40;3.70;;;;;;;13.99;75.53;99161.94;104202;1282;73076;-88
2024/04/13 06:17:08;;;;;;;6.20;3.90;;;;;;;14.15;74.96;99166.06;104313;1280;73731;-92
2024/04/13 06:19:37;;;;;;;8.30;3.40;;;;;;;14.29;74.25;99165.19;104276;1276;74838;-90
2024/04/13 06:22:03;;;;;;;8.30;3.80;;;;;;;14.45;73.77;99164.19;104064;1280;61115;-88
2024/04/13 06:24:30;;;;;;;6.70;3.70;;;;;;;14.59;73.48;99166.80;104302;1279;61166;-88
2024/04/13 06:26:56;;;;;;;3.40;3.00;;;;;;;14.74;72.71;99167.86;107077;1276;60356;-89
2024/04/13 06:29:22;;;;;;;7.70;3.30;;;;;;;14.90;71.68;99171.27;105178;1280;61221;-90
2024/04/13 06:31:49;;;;;;;5.00;3.40;;;;;;;15.04;70.30;99167.45;104501;1275;61240;-90
2024/04/13 06:34:15;;;;;;;6.50;3.60;;;;;;;15.20;68.57;99168.40;104671;1276;61088;-90
2024/04/13 06:36:41;;;;;;;3.90;2.40;;;;;;;15.35;67.31;99168.52;104241;1282;61192;-89
2024/04/13 06:39:11;;;;;;;10.70;3.40;;;;;;;15.49;66.43;99163.32;104051;1276;61173;-90
2024/04/13 06:41:41;;;;;;;9.70;3.40;;;;;;;15.61;65.52;99165.09;104197;1277;74866;-90
2024/04/13 06:44:11;;;;;;;8.30;3.20;;;;;;;15.71;65.14;99160.54;104141;1281;73542;-90
2024/04/13 06:46:38;;;;;;;4.60;3.10;;;;;;;15.80;65.03;99167.02;104161;1276;61230;-89
2024/04/13 06:49:07;;;;;;;8.00;3.10;;;;;;;15.90;64.20;99168.48;104192;1275;62347;-89
2024/04/13 06:51:41;;;;;;;8.20;3.40;;;;;;;15.98;64.19;99157.16;104325;1274;73616;-90
2024/04/13 06:54:10;;;;;;;8.40;3.10;;;;;;;16.07;64.02;99153.34;103871;1282;74296;-89
2024/04/13 06:56:37;;;;;;;9.50;3.00;;;;;;;16.16;63.89;99155.00;104233;1277;72623;-91
2024/04/13 06:59:04;;;;;;;8.90;3.00;;;;;;;16.26;63.00;99161.63;104161;1277;61317;-90
2024/04/13 07:01:31;;;;;;;7.90;3.70;;;;;;;16.36;61.87;99162.27;103969;1280;61230;-89
2024/04/13 07:04:02;;;;;;;5.80;2.60;;;;;;;16.45;61.11;99164.07;104588;1279;74398;-91
2024/04/13 07:06:50;;;;;;;5.20;2.80;;;;;;;16.54;60.67;99168.34;104149;1273;75274;-92
2024/04/13 07:09:26;;;;;;;4.50;2.70;;;;;;;16.65;60.23;99168.08;106079;1273;73009;-88
2024/04/13 07:11:53;;;;;;;3.60;3.00;;;;;;;16.74;60.17;99163.52;106844;1282;61167;-89
2024/04/13 07:14:23;;;;;;;8.60;2.90;;;;;;;16.84;60.14;99167.39;105592;1273;61775;-90
2024/04/13 07:16:58;;;;;;;6.90;2.90;;;;;;;16.94;59.76;99167.50;104806;1274;74583;-91
2024/04/13 07:19:24;;;;;;;5.20;3.10;;;;;;;17.03;59.25;99164.20;104336;1277;73002;-89
2024/04/13 07:21:58;;;;;;;9.80;2.80;;;;;;;17.12;59.10;99160.20;104278;1273;73283;-90
2024/04/13 07:24:28;;;;;;;6.50;2.40;;;;;;;17.20;58.83;99151.55;104361;1276;61391;-91
2024/04/13 07:27:00;;;;;;;5.60;2.90;;;;;;;17.28;58.30;99153.75;105128;1273;61161;-90
2024/04/13 07:29:31;;;;;;;6.00;3.20;;;;;;;17.36;57.30;99160.73;105470;1276;75085;-91
2024/04/13 07:31:58;;;;;;;6.00;2.60;;;;;;;17.41;57.14;99154.46;105748;1273;75419;-89
2024/04/13 07:34:24;;;;;;;8.00;3.20;;;;;;;17.47;57.58;99150.13;105922;1273;72564;-89
2024/04/13 07:36:54;;;;;;;5.30;2.70;;;;;;;17.53;57.24;99155.60;106214;1273;61087;-91
2024/04/13 07:39:21;;;;;;;7.40;2.70;;;;;;;17.59;56.49;99153.30;105857;1274;61645;-88
2024/04/13 07:41:47;;;;;;;3.40;2.10;;;;;;;17.64;56.53;99150.35;106164;1273;71890;-89
2024/04/13 07:44:17;;;;;;;7.20;2.50;;;;;;;17.68;56.51;99157.38;106065;1278;74741;-91
2024/04/13 07:46:44;;;;;;;5.70;2.50;;;;;;;17.74;56.66;99154.40;105796;1273;72697;-89
2024/04/13 07:49:18;;;;;;;7.10;2.20;;;;;;;17.78;56.57;99154.73;106567;1274;61239;-89
2024/04/13 07:51:44;;;;;;;4.70;2.40;;;;;;;17.83;56.10;99155.94;106607;1273;61029;-91
2024/04/13 07:54:10;;;;;;;7.20;2.50;;;;;;;17.88;56.11;99154.77;106417;1273;61516;-90
2024/04/13 07:56:37;;;;;;;6.00;2.50;;;;;;;17.94;56.03;99155.02;106871;1275;61151;-89
2024/04/13 07:59:12;;;;;;;6.40;2.80;;;;;;;18.01;55.75;99155.86;106701;1273;60500;-89
2024/04/13 08:01:42;;;;;;;5.90;2.90;;;;;;;18.07;54.82;99160.20;107035;1273;61231;-90
2024/04/13 08:04:12;;;;;;;9.00;1.90;;;;;;;18.11;54.49;99154.77;107028;1277;60370;-91
2024/04/13 08:06:40;;;;;;;4.00;1.60;;;;;;;18.15;54.66;99153.15;106728;1277;73088;-89
2024/04/13 08:09:26;;;;;;;5.50;2.00;;;;;;;18.20;54.39;99148.73;107132;1274;74826;-90
2024/04/13 08:11:54;;;;;;;4.60;2.20;;;;;;;18.24;54.00;99143.48;105227;1273;73010;-90
2024/04/13 08:14:21;;;;;;;4.20;2.00;;;;;;;18.27;54.01;99143.61;105329;1274;61419;-89
2024/04/13 08:16:51;;;;;;;6.30;2.60;;;;;;;18.31;54.02;99137.61;106074;1272;61587;-88
2024/04/13 08:19:17;;;;;;;3.80;2.10;;;;;;;18.33;53.81;99138.34;107166;1276;61208;-88
2024/04/13 08:21:44;;;;;;;6.30;2.30;;;;;;;18.35;54.19;99135.05;107863;1273;58725;-89
2024/04/13 08:24:10;;;;;;;3.00;2.00;;;;;;;18.38;54.07;99136.44;107277;1273;59475;-90
2024/04/13 08:26:36;;;;;;;4.80;2.20;;;;;;;18.41;53.91;99132.33;107280;1273;59829;-88
2024/04/13 08:29:12;;;;;;;4.20;1.90;;;;;;;18.46;53.84;99131.73;107545;1273;61032;-91
2024/04/13 08:31:39;;;;;;;4.40;2.30;;;;;;;18.50;53.44;99137.67;107566;1273;72657;-89
2024/04/13 08:34:10;;;;;;;3.60;2.10;;;;;;;18.53;53.36;99135.96;107557;1273;74174;-90
2024/04/13 08:36:36;;;;;;;8.60;2.30;;;;;;;18.57;53.45;99132.36;107710;1273;72470;-91
2024/04/13 08:39:15;;;;;;;10.00;2.30;;;;;;;18.60;53.67;99130.40;107413;1273;61748;-89
2024/04/13 08:45:36;;;;;;;6.20;2.20;;;;;;;18.71;52.41;99134.33;106893;1273;75386;-91
2024/04/13 08:56:13;;;;;;;5.80;2.10;;;;;;;18.75;51.20;99123.63;107884;1270;61243;-92
2024/04/13 09:00:16;;;;;;;12.20;2.60;;;;;;;18.73;51.58;99110.23;107829;1269;59948;-91
2024/04/13 09:03:49;;;;;;;;;;;;;;;;;;;;;
2024/04/13 09:06:52;;;;;;;9.30;1.90;;;;;;;18.72;51.59;99107.52;104880;1280;74643;-91
2024/04/13 09:09:59;;;;;;;4.10;1.90;;;;;;;18.73;51.36;99103.81;106284;1270;71402;-90
2024/04/13 09:12:36;;;;;;;9.30;1.90;;;;;;;18.77;51.32;99106.80;106884;1270;61109;-89
2024/04/13 09:15:04;;;;;;;2.60;1.60;;;;;;;18.77;50.84;99101.12;107097;1270;61214;-91
2024/04/13 09:17:34;;;;;;;7.10;1.50;;;;;;;18.81;51.59;99095.58;104632;1270;74903;-89
2024/04/13 09:20:07;;;;;;;6.50;2.10;;;;;;;18.85;51.24;99093.02;104449;1280;75449;-92
2024/04/13 09:22:36;;;;;;;5.00;1.90;;;;;;;18.90;50.98;99088.19;104492;1271;71491;-91
2024/04/13 09:25:34;;;;;;;11.80;2.80;;;;;;;18.97;50.64;99091.90;104704;1271;61378;-91
2024/04/13 09:28:08;;;;;;;3.20;1.70;;;;;;;19.05;49.49;99103.88;105241;1272;61359;-90
2024/04/13 09:30:39;;;;;;;10.50;1.90;;;;;;;19.09;49.58;99089.13;105297;1270;75438;-89
2024/04/13 09:33:06;;;;;;;5.80;1.80;;;;;;;19.15;49.83;99088.95;104829;1277;73948;-91
2024/04/13 09:35:33;;;;;;;12.70;3.00;;;;;;;19.22;49.62;99082.15;105207;1270;72605;-89
2024/04/13 09:38:00;;;;;;;15.00;1.80;;;;;;;19.30;49.44;99071.03;104779;1270;61426;-89
2024/04/13 09:40:34;;;;;;;6.10;1.70;;;;;;;19.38;49.47;99066.04;104583;1273;61278;-90
2024/04/13 09:43:03;;;;;;;4.00;1.40;;;;;;;19.49;49.69;99057.39;104530;1270;75566;-91
2024/04/13 09:45:38;;;;;;;6.70;1.80;;;;;;;19.61;49.71;99051.59;104907;1270;73078;-89
2024/04/13 09:48:09;;;;;;;8.80;2.30;;;;;;;19.74;49.80;99044.81;104950;1270;72609;-89
2024/04/13 09:50:38;;;;;;;3.50;1.60;;;;;;;19.89;48.76;99041.59;105348;1275;61291;-91
2024/04/13 09:53:05;;;;;;;5.40;1.70;;;;;;;20.02;48.20;99044.17;105227;1272;61342;-91
2024/04/13 09:55:31;;;;;;;3.80;1.60;;;;;;;20.11;47.96;99041.97;104618;1276;61473;-89
2024/04/13 09:57:57;;;;;;;23.00;2.50;;;;;;;20.22;47.19;99032.11;104652;1273;61720;-89
2024/04/13 10:00:26;;;;;;;4.30;1.50;;;;;;;20.33;46.82;99034.77;105440;1278;72623;-88
2024/04/13 10:02:55;;;;;;;11.90;1.90;;;;;;;20.42;46.43;99038.77;105731;1271;61834;-89
2024/04/13 10:05:25;;;;;;;14.10;2.20;;;;;;;20.48;45.97;99025.57;106443;1272;61865;-89
2024/04/13 10:08:18;;;;;;;14.70;2.30;;;;;;;20.52;45.35;99030.02;104975;1273;74459;-91
2024/04/13 10:10:53;;;;;;;11.20;2.20;;;;;;;20.54;44.85;99030.41;105593;1272;74133;-91
2024/04/13 10:13:33;;;;;;;3.60;1.60;;;;;;;20.54;45.06;99028.64;105510;1280;73512;-91
2024/04/13 10:16:03;;;;;;;6.90;2.70;;;;;;;20.55;44.85;99022.52;105964;1281;61375;-87
2024/04/13 10:18:29;;;;;;;6.90;1.80;;;;;;;20.60;45.33;99019.60;106869;1273;61352;-89
2024/04/13 10:20:56;;;;;;;3.50;1.40;;;;;;;20.70;45.23;99022.51;107523;1273;73394;-90
2024/04/13 10:23:24;;;;;;;4.80;1.50;;;;;;;20.81;44.07;99024.06;106602;1273;74695;-87
2024/04/13 10:25:57;;;;;;;6.10;1.60;;;;;;;20.96;44.31;99008.55;106471;1276;73345;-89
2024/04/13 10:28:24;;;;;;;4.60;1.40;;;;;;;21.13;43.81;99004.65;106919;1272;61257;-88
2024/04/13 10:30:56;;;;;;;8.90;1.70;;;;;;;21.29;43.15;99001.07;105835;1277;59736;-89
2024/04/13 10:33:30;;;;;;;10.90;1.80;;;;;;;21.46;43.72;98999.02;107890;1273;74828;-91
2024/04/13 10:36:07;;;;;;;5.60;1.70;;;;;;;21.62;42.75;99004.24;107019;1272;73615;-90
2024/04/13 10:38:57;;;;;;;2.30;1.40;;;;;;;21.77;42.35;99000.12;106217;1272;74668;-89
2024/04/13 10:41:35;;;;;;;5.10;1.60;;;;;;;21.90;42.10;99006.54;106900;1274;61084;-90
2024/04/13 10:44:02;;;;;;;3.30;1.30;;;;;;;22.02;41.49;99003.27;106388;1272;61087;-88
2024/04/13 10:46:32;;;;;;;3.80;1.20;;;;;;;22.18;41.56;98993.73;107011;1272;73547;-89
2024/04/13 10:49:00;;;;;;;3.60;1.30;;;;;;;22.27;41.12;98997.52;107774;1272;73184;-89
2024/04/13 10:51:26;;;;;;;11.90;1.90;;;;;;;22.37;40.44;98987.91;107280;1273;72550;-89
2024/04/13 10:53:55;;;;;;;22.60;2.80;;;;;;;22.42;40.86;98985.70;106158;1272;61024;-87
2024/04/13 10:56:22;;;;;;;8.20;1.60;;;;;;;22.50;40.88;98984.98;106670;1271;61058;-91
2024/04/13 10:59:02;;;;;;;5.60;2.40;;;;;;;22.64;40.85;98982.03;105454;1271;73441;-88
2024/04/13 11:01:29;;;;;;;3.20;1.20;;;;;;;22.72;40.08;98983.81;106606;1272;73156;-91
2024/04/13 11:04:10;;;;;;;9.30;1.90;;;;;;;22.82;39.95;98979.64;107290;1273;59129;-88
2024/04/13 11:06:47;;;;;;;6.00;1.20;;;;;;;22.86;39.48;98978.79;107483;1273;61242;-89
2024/04/13 11:09:18;;;;;;;10.20;1.30;;;;;;;22.93;38.82;98981.77;107079;1272;61106;-89
2024/04/13 11:11:45;;;;;;;9.50;1.20;;;;;;;23.03;38.26;98974.94;107565;1273;74844;-89
2024/04/13 11:14:11;;;;;;;5.20;1.20;;;;;;;23.13;38.25;98970.81;107455;1273;59900;-90
2024/04/13 11:16:41;;;;;;;4.10;1.10;;;;;;;23.26;38.00;98973.44;107999;1272;59255;-88
2024/04/13 11:19:12;;;;;;;6.60;1.00;;;;;;;23.45;37.42;98977.51;107613;1273;61045;-90
2024/04/13 11:21:44;;;;;;;8.00;1.20;;;;;;;23.60;37.29;98976.92;107259;1274;60162;-91
2024/04/13 11:24:11;;;;;;;7.70;1.40;;;;;;;23.76;37.08;98969.55;107435;1273;61326;-91
2024/04/13 11:26:46;;;;;;;2.60;0.90;;;;;;;23.87;36.58;98973.55;107483;1272;72792;-88
2024/04/13 11:29:14;;;;;;;9.20;1.30;;;;;;;23.97;37.22;98965.94;107316;1272;71303;-89
2024/04/13 11:31:41;;;;;;;5.10;1.40;;;;;;;24.09;37.69;98965.98;107472;1272;61136;-88
2024/04/13 11:34:11;;;;;;;4.80;1.50;;;;;;;24.23;37.93;98965.65;107628;1276;59659;-90
2024/04/13 11:36:39;;;;;;;2.70;1.30;;;;;;;24.37;37.69;98956.17;107959;1271;73718;-89
2024/04/13 11:39:05;;;;;;;2.40;1.00;;;;;;;24.46;37.67;98964.00;107613;1273;74352;-88
2024/04/13 11:41:32;;;;;;;9.60;1.30;;;;;;;24.51;36.97;98967.43;108013;1272;58844;-90
2024/04/13 11:44:00;;;;;;;9.70;1.70;;;;;;;24.52;36.82;98955.48;107829;1272;61275;-89
2024/04/13 11:46:30;;;;;;;6.10;1.40;;;;;;;24.47;36.83;98962.52;107582;1272;60204;-89